createdAt,value
2023-03-26T00:01:25.035Z,70.49
2023-03-26T00:03:55.232Z,71.45
2023-03-26T00:06:24.502Z,71.40
2023-03-26T00:08:52.596Z,71.55
2023-03-26T00:11:21.590Z,71.66
2023-03-26T00:13:48.578Z,71.91
2023-03-26T00:16:17.924Z,71.36
2023-03-26T00:18:44.635Z,71.47
2023-03-26T00:21:14.881Z,71.23
2023-03-26T00:23:42.356Z,70.89
2023-03-26T00:26:10.762Z,71.12
2023-03-26T00:28:42.230Z,70.62
2023-03-26T00:31:14.803Z,70.27
2023-03-26T00:33:41.930Z,70.40
2023-03-26T00:36:11.958Z,69.64
2023-03-26T00:38:39.274Z,69.70
2023-03-26T00:41:17.553Z,69.53
2023-03-26T00:43:46.654Z,69.59
2023-03-26T00:46:13.263Z,70.31
2023-03-26T00:48:45.510Z,70.12
2023-03-26T00:51:17.469Z,70.82
2023-03-26T00:53:46.263Z,71.26
2023-03-26T00:56:13.247Z,70.94
2023-03-26T00:58:40.258Z,70.87
2023-03-26T01:01:10.551Z,70.86
2023-03-26T01:03:38.644Z,70.92
2023-03-26T01:06:12.779Z,71.01
2023-03-26T01:08:50.415Z,70.26
2023-03-26T01:11:16.882Z,70.06
2023-03-26T01:13:47.762Z,70.46
2023-03-26T01:16:23.323Z,70.28
2023-03-26T01:18:52.682Z,70.24
2023-03-26T01:21:22.628Z,70.82
2023-03-26T01:23:59.931Z,70.46
2023-03-26T01:26:44.129Z,70.64
2023-03-26T01:29:39.463Z,71.16
2023-03-26T01:32:37.714Z,71.49
2023-03-26T01:35:36.205Z,71.09
2023-03-26T01:38:24.528Z,71.00
2023-03-26T01:41:04.822Z,71.10
2023-03-26T01:43:44.097Z,70.77
2023-03-26T01:46:13.142Z,71.02
2023-03-26T01:48:41.368Z,71.11
2023-03-26T01:51:09.806Z,70.74
2023-03-26T01:53:43.866Z,71.63
2023-03-26T01:56:29.466Z,71.40
2023-03-26T01:58:58.869Z,71.54
2023-03-26T02:01:49.367Z,71.77
2023-03-26T02:04:54.523Z,71.68
2023-03-26T02:07:38.018Z,71.55
2023-03-26T02:10:27.781Z,72.03
2023-03-26T02:12:54.773Z,71.83
2023-03-26T02:15:21.566Z,71.91
2023-03-26T02:17:49.514Z,71.60
2023-03-26T02:21:06.273Z,71.91
2023-03-26T02:23:35.870Z,71.74
2023-03-26T02:26:06.472Z,72.24
2023-03-26T02:28:33.152Z,71.89
2023-03-26T02:31:01.826Z,72.13
2023-03-26T02:33:29.054Z,72.31
2023-03-26T02:35:59.381Z,72.43
2023-03-26T02:38:26.720Z,72.80
2023-03-26T02:40:54.479Z,72.95
2023-03-26T02:43:21.344Z,72.68
2023-03-26T02:45:47.944Z,72.52
2023-03-26T02:48:15.197Z,72.37
2023-03-26T02:50:42.490Z,72.61
2023-03-26T02:53:09.427Z,72.70
2023-03-26T02:55:35.975Z,72.98
2023-03-26T02:58:02.461Z,72.86
2023-03-26T03:00:29.057Z,72.96
2023-03-26T03:02:58.019Z,73.26
2023-03-26T03:05:28.865Z,73.01
2023-03-26T03:07:58.082Z,72.95
2023-03-26T03:10:26.301Z,72.71
2023-03-26T03:12:53.281Z,72.17
2023-03-26T03:15:20.470Z,72.55
2023-03-26T03:17:47.493Z,72.40
2023-03-26T03:20:14.094Z,72.91
2023-03-26T03:22:41.232Z,72.87
2023-03-26T03:25:17.478Z,73.12
2023-03-26T03:27:44.577Z,73.02
2023-03-26T03:30:13.290Z,73.09
2023-03-26T03:32:39.817Z,72.88
2023-03-26T03:35:07.404Z,72.80
2023-03-26T03:37:33.908Z,73.06
2023-03-26T03:40:00.365Z,72.57
2023-03-26T03:42:27.638Z,72.84
2023-03-26T03:44:54.271Z,72.72
2023-03-26T03:47:22.834Z,72.15
2023-03-26T03:49:50.009Z,71.63
2023-03-26T03:52:17.968Z,71.66
2023-03-26T03:54:44.523Z,71.79
2023-03-26T03:57:11.088Z,71.81
2023-03-26T03:59:37.561Z,71.12
2023-03-26T04:02:03.993Z,71.16
2023-03-26T04:04:30.654Z,71.27
2023-03-26T04:06:57.168Z,71.57
2023-03-26T04:09:23.638Z,71.34
2023-03-26T04:11:51.084Z,71.84
2023-03-26T04:14:17.559Z,72.02
2023-03-26T04:16:44.034Z,71.90
2023-03-26T04:19:10.477Z,71.75
2023-03-26T04:21:37.803Z,71.51
2023-03-26T04:24:05.286Z,71.59
2023-03-26T04:26:31.944Z,71.64
2023-03-26T04:29:05.639Z,71.82
2023-03-26T04:31:34.050Z,71.58
2023-03-26T04:34:07.607Z,70.87
2023-03-26T04:36:35.461Z,70.82
2023-03-26T04:39:05.001Z,70.68
2023-03-26T04:41:32.443Z,70.67
2023-03-26T04:44:01.797Z,70.58
2023-03-26T04:46:28.656Z,70.85
2023-03-26T04:48:55.573Z,70.79
2023-03-26T04:51:27.055Z,70.65
2023-03-26T04:54:07.176Z,70.84
2023-03-26T04:56:43.473Z,70.49
2023-03-26T04:59:30.427Z,70.66
2023-03-26T05:01:59.134Z,70.28
2023-03-26T05:04:26.664Z,70.39
2023-03-26T05:06:53.962Z,70.35
2023-03-26T05:09:20.623Z,70.29
2023-03-26T05:11:48.181Z,70.21
2023-03-26T05:14:14.654Z,70.11
2023-03-26T05:16:41.388Z,70.30
2023-03-26T05:19:08.947Z,70.51
2023-03-26T05:21:35.787Z,70.68
2023-03-26T05:24:02.598Z,70.32
2023-03-26T05:26:29.563Z,70.70
2023-03-26T05:28:56.846Z,70.43
2023-03-26T05:31:23.479Z,70.36
2023-03-26T05:33:50.210Z,70.66
2023-03-26T05:36:17.283Z,70.69
2023-03-26T05:38:47.751Z,70.47
2023-03-26T05:41:14.291Z,70.57
2023-03-26T05:43:41.391Z,70.35
2023-03-26T05:46:08.128Z,70.49
2023-03-26T05:48:34.950Z,70.69
2023-03-26T05:51:01.616Z,70.54
2023-03-26T05:53:28.232Z,70.74
2023-03-26T05:55:58.413Z,71.17
2023-03-26T05:58:26.717Z,70.75
2023-03-26T06:01:18.105Z,70.55
2023-03-26T06:04:12.580Z,70.58
2023-03-26T06:06:39.367Z,70.26
2023-03-26T06:09:06.615Z,70.69
2023-03-26T06:11:33.120Z,70.57
2023-03-26T06:14:00.603Z,70.05
2023-03-26T06:16:27.945Z,70.63
2023-03-26T06:18:56.703Z,70.16
2023-03-26T06:21:27.620Z,69.83
2023-03-26T06:23:54.518Z,69.78
2023-03-26T06:26:21.444Z,69.42
2023-03-26T06:28:48.221Z,69.56
2023-03-26T06:31:14.811Z,69.70
2023-03-26T06:33:41.326Z,69.73
2023-03-26T06:36:08.250Z,69.62
2023-03-26T06:38:34.887Z,69.53
2023-03-26T06:41:06.173Z,69.26
2023-03-26T06:43:33.855Z,69.26
2023-03-26T06:46:03.999Z,69.48
2023-03-26T06:48:30.862Z,69.60
2023-03-26T06:50:57.740Z,69.21
2023-03-26T06:53:24.214Z,69.03
2023-03-26T06:55:50.909Z,69.52
2023-03-26T06:58:17.367Z,69.97
2023-03-26T07:00:44.026Z,68.85
2023-03-26T07:03:11.405Z,68.72
2023-03-26T07:05:40.550Z,68.03
2023-03-26T07:08:06.958Z,67.43
2023-03-26T07:10:33.602Z,66.72
2023-03-26T07:13:00.024Z,67.07
2023-03-26T07:15:28.845Z,66.89
2023-03-26T07:17:56.353Z,66.53
2023-03-26T07:20:23.811Z,66.01
2023-03-26T07:23:20.556Z,66.29
2023-03-26T07:25:48.672Z,65.96
2023-03-26T07:28:25.799Z,66.09
2023-03-26T07:31:04.549Z,66.50
2023-03-26T07:33:38.811Z,66.28
2023-03-26T07:36:26.500Z,65.80
2023-03-26T07:39:30.790Z,64.93
2023-03-26T07:42:09.822Z,65.23
2023-03-26T07:45:03.106Z,66.18
2023-03-26T07:47:33.924Z,66.03
2023-03-26T07:50:00.918Z,65.28
2023-03-26T07:52:28.244Z,64.52
2023-03-26T07:54:55.759Z,63.75
2023-03-26T07:57:47.483Z,63.47
2023-03-26T08:00:22.148Z,63.45
2023-03-26T08:03:10.482Z,63.78
2023-03-26T08:05:47.048Z,63.29
2023-03-26T08:08:25.701Z,62.61
2023-03-26T08:11:14.586Z,63.72
2023-03-26T08:14:01.092Z,62.05
2023-03-26T08:16:36.454Z,61.30
2023-03-26T08:19:21.087Z,61.03
2023-03-26T08:22:06.904Z,60.97
2023-03-26T08:24:43.629Z,61.26
2023-03-26T08:27:21.452Z,61.55
2023-03-26T08:30:03.497Z,62.41
2023-03-26T08:34:20.991Z,61.40
2023-03-26T08:36:47.645Z,60.05
2023-03-26T08:39:14.212Z,60.44
2023-03-26T08:41:46.839Z,60.96
2023-03-26T08:44:32.075Z,60.28
2023-03-26T08:47:29.034Z,59.69
2023-03-26T08:50:07.909Z,58.92
2023-03-26T08:52:34.353Z,58.17
2023-03-26T08:55:19.440Z,55.92
2023-03-26T08:58:14.132Z,55.33
2023-03-26T09:00:41.130Z,55.07
2023-03-26T09:03:35.542Z,54.71
2023-03-26T09:06:31.764Z,54.49
2023-03-26T09:09:19.588Z,52.96
2023-03-26T09:12:14.189Z,52.99
2023-03-26T09:15:23.782Z,52.60
2023-03-26T09:17:54.438Z,53.31
2023-03-26T09:20:34.052Z,52.41
2023-03-26T09:23:16.048Z,53.81
2023-03-26T09:25:56.550Z,53.53
2023-03-26T09:28:23.236Z,53.70
2023-03-26T09:31:15.775Z,53.57
2023-03-26T09:34:00.289Z,54.42
2023-03-26T09:36:45.370Z,54.24
2023-03-26T09:39:52.191Z,54.31
2023-03-26T09:42:52.348Z,53.59
2023-03-26T09:45:22.578Z,53.28
2023-03-26T09:48:05.635Z,52.52
2023-03-26T09:50:59.821Z,50.54
2023-03-26T09:54:11.301Z,46.87
2023-03-26T09:57:15.096Z,45.64
2023-03-26T10:00:16.896Z,45.35
2023-03-26T10:03:02.212Z,46.70
2023-03-26T10:05:48.054Z,47.00
2023-03-26T10:08:31.719Z,47.01
2023-03-26T10:11:13.712Z,47.65
2023-03-26T10:13:54.044Z,47.84
2023-03-26T10:16:51.887Z,47.78
2023-03-26T10:19:37.815Z,47.21
2023-03-26T10:22:14.502Z,48.83
2023-03-26T10:25:05.096Z,48.46
2023-03-26T10:27:51.557Z,49.15
2023-03-26T10:30:31.622Z,48.69
2023-03-26T10:33:09.384Z,50.11
2023-03-26T10:35:52.770Z,50.02
2023-03-26T10:38:47.261Z,50.33
2023-03-26T10:41:23.493Z,50.88
2023-03-26T10:44:22.780Z,50.47
2023-03-26T10:47:16.769Z,50.09
2023-03-26T10:50:08.210Z,51.03
2023-03-26T10:52:39.696Z,51.00
2023-03-26T10:55:24.294Z,50.63
2023-03-26T10:58:13.360Z,52.83
2023-03-26T11:00:46.582Z,53.22
2023-03-26T11:03:43.725Z,50.63
2023-03-26T11:06:19.606Z,51.57
2023-03-26T11:09:04.691Z,50.86
2023-03-26T11:11:48.916Z,51.96
2023-03-26T11:14:47.803Z,53.04
2023-03-26T11:17:40.477Z,52.16
2023-03-26T11:20:25.306Z,53.30
2023-03-26T11:23:14.592Z,53.03
2023-03-26T11:25:50.908Z,52.36
2023-03-26T11:28:32.641Z,51.83
2023-03-26T11:31:04.767Z,52.22
2023-03-26T11:33:37.206Z,52.08
2023-03-26T11:36:08.825Z,52.56
2023-03-26T11:38:40.134Z,52.34
2023-03-26T11:41:23.070Z,52.32
2023-03-26T11:43:56.377Z,52.41
2023-03-26T11:46:25.352Z,53.76
2023-03-26T11:49:09.259Z,54.01
2023-03-26T11:51:37.017Z,53.71
2023-03-26T11:54:05.325Z,55.05
2023-03-26T11:57:04.558Z,57.71
2023-03-26T11:59:55.888Z,58.03
2023-03-26T12:02:37.825Z,59.15
2023-03-26T12:05:20.339Z,56.95
2023-03-26T12:07:53.593Z,55.83
2023-03-26T12:10:39.245Z,56.30
2023-03-26T12:13:37.237Z,55.40
2023-03-26T12:16:14.306Z,55.59
2023-03-26T12:18:43.804Z,56.69
2023-03-26T12:21:19.338Z,54.52
2023-03-26T12:23:56.844Z,55.01
2023-03-26T12:26:35.256Z,54.04
2023-03-26T12:29:09.663Z,55.46
2023-03-26T12:31:46.806Z,55.09
2023-03-26T12:34:16.825Z,55.76
2023-03-26T12:37:00.003Z,54.64
2023-03-26T12:40:09.079Z,54.14
2023-03-26T12:44:50.336Z,53.79
2023-03-26T12:45:23.895Z,54.39
2023-03-26T12:47:59.727Z,54.77
2023-03-26T12:50:44.930Z,53.92
2023-03-26T12:53:23.975Z,55.12
2023-03-26T12:56:01.232Z,56.12
2023-03-26T12:58:58.652Z,56.56
2023-03-26T13:01:37.306Z,57.18
2023-03-26T13:04:28.774Z,56.98
2023-03-26T13:07:04.395Z,58.43
2023-03-26T13:09:56.618Z,58.20
2023-03-26T13:12:46.187Z,58.75
2023-03-26T13:15:35.611Z,59.13
2023-03-26T13:18:21.577Z,59.61
2023-03-26T13:21:14.714Z,59.62
2023-03-26T13:23:53.515Z,60.22
2023-03-26T13:26:38.812Z,61.31
2023-03-26T13:29:23.815Z,61.84
2023-03-26T13:32:20.315Z,62.63
2023-03-26T13:35:18.120Z,64.06
2023-03-26T13:38:06.960Z,63.50
2023-03-26T13:40:46.561Z,65.17
2023-03-26T13:43:28.181Z,65.68
2023-03-26T13:46:28.736Z,66.98
2023-03-26T13:49:15.535Z,68.73
2023-03-26T13:51:48.454Z,69.62
2023-03-26T13:54:27.584Z,69.26
2023-03-26T13:57:05.483Z,69.45
2023-03-26T13:59:40.229Z,70.05
2023-03-26T14:02:18.154Z,69.32
2023-03-26T14:04:49.503Z,67.74
2023-03-26T14:07:24.759Z,68.29
2023-03-26T14:09:58.757Z,68.40
2023-03-26T14:12:51.440Z,69.32
2023-03-26T14:15:27.090Z,68.65
2023-03-26T14:18:03.521Z,69.17
2023-03-26T14:21:19.439Z,69.56
2023-03-26T14:23:51.924Z,69.31
2023-03-26T14:26:40.388Z,70.49
2023-03-26T14:29:28.095Z,70.99
2023-03-26T14:32:24.801Z,70.85
2023-03-26T14:35:26.003Z,71.28
2023-03-26T14:38:35.354Z,71.20
2023-03-26T14:41:24.992Z,71.35
2023-03-26T14:44:29.573Z,71.76
2023-03-26T14:47:20.535Z,71.85
2023-03-26T14:49:55.363Z,72.23
2023-03-26T14:52:31.550Z,72.02
2023-03-26T14:55:03.617Z,72.87
2023-03-26T14:57:52.467Z,72.14
2023-03-26T15:01:03.811Z,72.25
2023-03-26T15:03:51.202Z,72.74
2023-03-26T15:06:55.344Z,72.83
2023-03-26T15:09:49.004Z,73.03
2023-03-26T15:12:51.508Z,71.35
2023-03-26T15:15:36.309Z,72.04
2023-03-26T15:18:21.629Z,71.84
2023-03-26T15:21:18.967Z,71.74
2023-03-26T15:24:16.298Z,72.31
2023-03-26T15:27:01.648Z,71.62
2023-03-26T15:29:28.073Z,71.52
2023-03-26T15:32:16.255Z,72.51
2023-03-26T15:35:37.641Z,73.58
2023-03-26T15:38:42.453Z,74.59
2023-03-26T15:41:27.801Z,73.23
2023-03-26T15:44:22.830Z,73.32
2023-03-26T15:47:30.651Z,74.11
2023-03-26T15:50:15.631Z,73.19
2023-03-26T15:52:53.912Z,73.33
2023-03-26T15:55:53.692Z,73.73
2023-03-26T15:58:30.785Z,73.49
2023-03-26T16:01:25.449Z,73.93
2023-03-26T16:04:09.267Z,74.57
2023-03-26T16:06:41.586Z,74.96
2023-03-26T16:09:20.204Z,75.17
2023-03-26T16:11:54.813Z,75.73
2023-03-26T16:14:36.322Z,76.12
2023-03-26T16:17:06.493Z,76.99
2023-03-26T16:19:46.067Z,76.48
2023-03-26T16:22:42.826Z,76.58
2023-03-26T16:25:28.670Z,76.44
2023-03-26T16:28:10.681Z,76.19
2023-03-26T16:30:37.632Z,75.95
2023-03-26T16:33:19.377Z,75.65
2023-03-26T16:36:26.058Z,75.53
2023-03-26T16:39:19.781Z,75.19
2023-03-26T16:42:06.079Z,75.77
2023-03-26T16:44:41.127Z,75.42
2023-03-26T16:47:42.929Z,76.27
2023-03-26T16:50:33.051Z,75.81
2023-03-26T16:53:34.673Z,75.72
2023-03-26T16:56:15.660Z,76.31
2023-03-26T16:59:00.381Z,75.67
2023-03-26T17:01:27.373Z,75.38
2023-03-26T17:04:05.131Z,75.84
2023-03-26T17:06:45.692Z,75.92
2023-03-26T17:09:21.238Z,75.55
2023-03-26T17:11:59.864Z,74.99
2023-03-26T17:14:48.928Z,75.08
2023-03-26T17:17:37.432Z,74.81
2023-03-26T17:20:25.254Z,74.86
2023-03-26T17:23:09.240Z,74.29
2023-03-26T17:25:40.472Z,74.59
2023-03-26T17:28:28.274Z,74.23
2023-03-26T17:31:16.400Z,74.88
2023-03-26T17:33:43.280Z,74.50
2023-03-26T17:36:12.743Z,75.06
2023-03-26T17:38:39.219Z,75.59
2023-03-26T17:41:07.009Z,75.78
2023-03-26T17:43:50.756Z,75.16
2023-03-26T17:46:25.679Z,75.30
2023-03-26T17:49:00.964Z,75.72
2023-03-26T17:51:38.774Z,75.25
2023-03-26T17:58:07.673Z,75.71
2023-03-26T18:00:47.088Z,75.92
2023-03-26T18:03:34.149Z,76.79
2023-03-26T18:06:07.949Z,76.88
2023-03-26T18:08:50.677Z,76.35
2023-03-26T18:11:29.263Z,76.09
2023-03-26T18:14:01.938Z,75.67
2023-03-26T18:16:39.503Z,75.73
2023-03-26T18:19:22.619Z,75.57
2023-03-26T18:21:54.322Z,74.98
2023-03-26T18:24:32.789Z,75.42
2023-03-26T18:27:10.746Z,75.31
2023-03-26T18:29:44.694Z,75.19
2023-03-26T18:32:11.683Z,75.54
2023-03-26T18:34:45.956Z,75.25
2023-03-26T18:37:21.049Z,76.27
2023-03-26T18:39:58.979Z,76.34
2023-03-26T18:42:27.193Z,77.06
2023-03-26T18:44:54.699Z,77.15
2023-03-26T18:47:29.174Z,76.94
2023-03-26T18:49:57.525Z,76.32
2023-03-26T18:52:27.179Z,76.64
2023-03-26T18:54:54.660Z,76.34
2023-03-26T18:57:25.122Z,75.59
2023-03-26T18:59:54.329Z,76.08
2023-03-26T19:02:22.093Z,75.71
2023-03-26T19:04:50.817Z,75.99
2023-03-26T19:07:24.903Z,76.21
2023-03-26T19:09:56.285Z,76.27
2023-03-26T19:12:24.100Z,76.62
2023-03-26T19:15:02.654Z,76.33
2023-03-26T19:17:34.715Z,76.80
2023-03-26T19:20:01.610Z,75.85
2023-03-26T19:22:30.315Z,76.47
2023-03-26T19:25:02.163Z,76.48
2023-03-26T19:27:28.915Z,76.50
2023-03-26T19:29:55.438Z,76.56
2023-03-26T19:32:34.578Z,77.47
2023-03-26T19:35:03.996Z,77.63
2023-03-26T19:37:31.440Z,78.09
2023-03-26T19:40:30.133Z,78.85
2023-03-26T19:42:59.897Z,79.85
2023-03-26T19:45:26.995Z,80.05
2023-03-26T19:48:07.374Z,79.72
2023-03-26T19:50:52.608Z,79.95
2023-03-26T19:53:19.090Z,79.29
2023-03-26T19:56:11.405Z,79.91
2023-03-26T19:58:38.078Z,79.72
2023-03-26T20:01:04.751Z,80.21
2023-03-26T20:03:42.947Z,80.26
2023-03-26T20:06:14.972Z,80.28
2023-03-26T20:08:41.545Z,80.42
2023-03-26T20:11:16.594Z,80.47
2023-03-26T20:13:43.099Z,80.86
2023-03-26T20:16:25.751Z,80.87
2023-03-26T20:18:52.787Z,80.74
2023-03-26T20:21:19.513Z,80.77
2023-03-26T20:23:45.948Z,80.64
2023-03-26T20:26:16.576Z,80.07
2023-03-26T20:28:48.075Z,80.27
2023-03-26T20:31:22.016Z,80.42
2023-03-26T20:33:52.990Z,80.13
2023-03-26T20:36:34.287Z,80.35
2023-03-26T20:39:07.835Z,79.95
2023-03-26T20:41:35.643Z,80.53
2023-03-26T20:44:04.859Z,80.18
2023-03-26T20:46:31.953Z,80.84
2023-03-26T20:48:59.753Z,80.96
2023-03-26T20:51:28.188Z,80.81
2023-03-26T20:53:55.915Z,80.24
2023-03-26T20:56:22.691Z,80.44
2023-03-26T20:58:54.747Z,80.25
2023-03-26T21:01:27.757Z,81.23
2023-03-26T21:03:54.799Z,81.21
2023-03-26T21:06:21.302Z,81.38
2023-03-26T21:08:47.957Z,80.67
2023-03-26T21:11:26.506Z,80.34
2023-03-26T21:14:06.725Z,80.42
2023-03-26T21:16:33.669Z,80.67
2023-03-26T21:19:00.893Z,80.88
2023-03-26T21:21:39.799Z,80.49
2023-03-26T21:24:12.708Z,80.85
2023-03-26T21:26:56.243Z,81.12
2023-03-26T21:29:22.933Z,81.25
2023-03-26T21:31:51.091Z,81.44
2023-03-26T21:34:19.916Z,81.57
2023-03-26T21:36:47.039Z,81.71
2023-03-26T21:39:15.315Z,81.28
2023-03-26T21:41:46.966Z,80.92
2023-03-26T21:44:14.424Z,81.12
2023-03-26T21:46:45.476Z,80.43
2023-03-26T21:49:13.326Z,80.04
2023-03-26T21:51:40.854Z,79.21
2023-03-26T21:54:25.921Z,78.97
2023-03-26T21:57:29.058Z,78.50
2023-03-26T22:00:08.456Z,78.72
2023-03-26T22:02:47.064Z,78.78
2023-03-26T22:05:25.880Z,78.84
2023-03-26T22:08:02.863Z,78.82
2023-03-26T22:10:30.971Z,78.16
2023-03-26T22:12:58.445Z,78.57
2023-03-26T22:15:26.734Z,78.62
2023-03-26T22:17:56.000Z,78.78
2023-03-26T22:20:24.949Z,78.28
2023-03-26T22:22:53.310Z,78.13
2023-03-26T22:25:20.911Z,78.07
2023-03-26T22:27:49.860Z,78.21
2023-03-26T22:30:17.587Z,77.91
2023-03-26T22:32:44.909Z,77.90
2023-03-26T22:35:12.977Z,77.73
2023-03-26T22:37:40.534Z,77.69
2023-03-26T22:40:10.424Z,77.59
2023-03-26T22:42:37.202Z,77.42
2023-03-26T22:45:04.655Z,77.32
2023-03-26T22:47:33.660Z,77.17
2023-03-26T22:50:01.059Z,77.29
2023-03-26T22:52:28.318Z,77.72
2023-03-26T22:54:55.118Z,77.87
2023-03-26T22:57:22.849Z,77.64
2023-03-26T22:59:49.750Z,77.95
2023-03-26T23:02:17.990Z,77.54
2023-03-26T23:04:44.835Z,77.25
2023-03-26T23:07:11.823Z,77.29
2023-03-26T23:09:38.523Z,76.81
2023-03-26T23:12:05.485Z,78.09
2023-03-26T23:14:36.284Z,78.53
2023-03-26T23:17:02.981Z,77.51
2023-03-26T23:19:30.175Z,75.69
2023-03-26T23:21:57.592Z,76.73
2023-03-26T23:24:26.486Z,77.05
2023-03-26T23:26:53.403Z,76.53
2023-03-26T23:29:20.106Z,76.78
2023-03-26T23:31:46.975Z,76.91
2023-03-26T23:34:14.269Z,76.21
2023-03-26T23:36:41.934Z,76.78
2023-03-26T23:39:09.294Z,77.16
2023-03-26T23:41:36.892Z,76.96
2023-03-26T23:44:04.115Z,77.96
2023-03-26T23:46:33.121Z,77.71
2023-03-26T23:49:02.448Z,77.30
2023-03-26T23:51:32.744Z,77.71
2023-03-26T23:54:00.287Z,77.31
2023-03-26T23:56:30.376Z,77.77
2023-03-26T23:58:58.220Z,77.53
